^^
Datos históricos de la estación: Murcia-Puente Tocinos
Diario Informe para Junio 30, 2019 Unidades:  Ingés    Métrico   Ambas
Diario Semanal Mensual Anual
  Máxima: Mínima: Promedio:
Temperatura: 86.7 °F 68.4 °F 75.6 °F
Punto de rocio: 70.2 °F 56.7 °F 65.1 °F
Humedad: 89% 38.4% 72%
Velocidad viento: 11.4mph 0mph 4.6mph
Racha viento: 21mph - -
Viento- - SSE
Presión: 30 in 29.9 in -
Precipitación: 0 in    
 
 
Tabla de datos para Junio 30, 2019
Hora Temperatura Punto de rocio Presión Viento Velocidad viento Racha viento Humedad Intensidad lluvia(por hora) Nubes
00:04 73.9 °F 69.1 °F 30 in NO 1.8 mph 2.9 mph 84.8% 0 in
00:09 73.8 °F 69.1 °F 30 in NO 1.8 mph 3.6 mph 85% 0 in
00:14 73.6 °F 68.9 °F 30 in NO 1.8 mph 4 mph 85% 0 in
00:19 73.4 °F 68.5 °F 30 in NO 1.7 mph 2 mph 85% 0 in
00:24 73 °F 68 °F 30 in NO 1.4 mph 2.9 mph 84% 0 in
00:29 73 °F 68 °F 30 in NO 1.4 mph 3 mph 84.3% 0 in
00:34 72.9 °F 67.8 °F 30 in NO 1.4 mph 2.4 mph 84% 0 in
00:39 72.9 °F 67.8 °F 30 in NO 1.1 mph 2 mph 84.4% 0 in
00:44 72.9 °F 68.2 °F 30 in Calm   1.4 mph 85.1% 0 in
00:49 72.9 °F 68.4 °F 30 in Calm   2.3 mph 85.8% 0 in
00:54 72.9 °F 68 °F 30 in Calm   2.9 mph 85% 0 in
00:59 72.7 °F 67.6 °F 30 in Calm   3 mph 84% 0 in
01:04 72.5 °F 67.3 °F 30 in Calm   2 mph 84% 0 in
01:09 72.3 °F 67.3 °F 30 in Calm     84% 0 in
01:14 72.3 °F 67.5 °F 30 in Calm   2.4 mph 84.8% 0 in
01:19 72.3 °F 67.3 °F 30 in Este 0.4 mph 2.9 mph 84.1% 0 in
01:24 72.3 °F 67.1 °F 30 in Este 1.4 mph 3 mph 83.9% 0 in
01:29 72.1 °F 66.9 °F 30 in Este 1.4 mph 3 mph 83.1% 0 in
01:34 72.1 °F 67.1 °F 30 in Este 1.4 mph 2 mph 84% 0 in
01:39 72.1 °F 66.7 °F 30 in Este 1.1 mph 2.4 mph 83.2% 0 in
01:44 72.1 °F 66.7 °F 30 in Calm   2.4 mph 82.9% 0 in
01:49 72 °F 66.2 °F 30 in Este 0.4 mph 2.3 mph 82% 0 in
01:54 72 °F 66 °F 30 in Este 1.4 mph 2.9 mph 82% 0 in
01:59 71.8 °F 66.2 °F 30 in Este 1.5 mph 3.5 mph 82.8% 0 in
02:04 71.8 °F 66.4 °F 30 in ESE 1.8 mph 4.6 mph 83% 0 in
02:09 71.8 °F 66.6 °F 30 in SSE 1.9 mph 5 mph 83.7% 0 in
02:14 71.6 °F 66.6 °F 30 in SSE 2.4 mph 5 mph 84% 0 in
02:19 71.6 °F 66.6 °F 30 in SSE 2.4 mph 5 mph 84% 0 in
02:24 71.6 °F 66.6 °F 30 in SSE 2.4 mph 4 mph 84% 0 in
02:29 71.6 °F 66.4 °F 30 in SSE 2.2 mph 4 mph 84% 0 in
02:34 71.4 °F 66.2 °F 30 in Sur 1.8 mph 4.7 mph 83.6% 0 in
02:39 71.4 °F 65.8 °F 30 in SSO 1.9 mph 5 mph 82.7% 0 in
02:44 71.4 °F 65.5 °F 30 in SSO 2.4 mph 5.2 mph 81.5% 0 in
02:49 71.4 °F 65.3 °F 30 in SSO 2.4 mph 5 mph 81% 0 in
02:54 71.4 °F 65.3 °F 30 in SO 2.4 mph 5 mph 81% 0 in
02:59 71.4 °F 65.5 °F 30 in SSO 2.6 mph 5.8 mph 81.8% 0 in
03:04 71.4 °F 65.7 °F 30 in SSO 3.1 mph 6 mph 82.1% 0 in
03:09 71.2 °F 65.8 °F 30 in SSO 3.1 mph 6 mph 83% 0 in
03:14 71.2 °F 65.8 °F 30 in SSO 3.1 mph 5 mph 83% 0 in
03:19 71.1 °F 65.7 °F 30 in SSO 2.9 mph 5 mph 83% 0 in
03:24 71.1 °F 65.8 °F 30 in SSO 2.4 mph 5 mph 83.4% 0 in
03:29 71.1 °F 66 °F 30 in SO 2.4 mph 5 mph 84% 0 in
03:34 71.1 °F 65.8 °F 30 in SO 2.4 mph 5 mph 84% 0 in
03:39 70.9 °F 65.8 °F 30 in SSO 2.3 mph 5.2 mph 84.3% 0 in
03:44 70.9 °F 65.8 °F 30 in Sur 2 mph 5.2 mph 84.4% 0 in
03:49 70.7 °F 65.7 °F 30 in Sur 2.2 mph 5.4 mph 84% 0 in
03:54 70.5 °F 65.5 °F 30 in Sur 3.1 mph 6 mph 84% 0 in
03:59 70.5 °F 65.5 °F 30 in Sur 3.1 mph 6 mph 84% 0 in
04:04 70.3 °F 65.3 °F 30 in Sur 3.1 mph 5 mph 84% 0 in
04:09 70.3 °F 65.5 °F 30 in Sur 3 mph 5 mph 84.5% 0 in
04:14 70.3 °F 65.7 °F 30 in Sur 2.9 mph 5 mph 85% 0 in
04:19 70.2 °F 65.5 °F 30 in Sur 2.9 mph 5 mph 85% 0 in
04:24 70.2 °F 65.5 °F 30 in Sur 3.1 mph 5 mph 85% 0 in
04:29 70.2 °F 65.5 °F 30 in Sur 3.1 mph 6.4 mph 85% 0 in
04:34 70.2 °F 65.5 °F 30 in Sur 3.1 mph 7 mph 85% 0 in
04:39 70 °F 65.3 °F 30 in Sur 3.2 mph 7 mph 85% 0 in
04:44 70 °F 65.3 °F 30 in Sur 3.6 mph 6 mph 85% 0 in
04:49 70 °F 65.3 °F 30 in Sur 3.5 mph 5.2 mph 85% 0 in
04:54 69.8 °F 65.1 °F 30 in SSO 3.1 mph 5.9 mph 85% 0 in
04:59 70 °F 65.3 °F 30 in SSO 3.4 mph 6.9 mph 85.4% 0 in
05:04 70 °F 65.7 °F 30 in SSO 4 mph 7 mph 86% 0 in
05:09 70 °F 65.7 °F 30 in SSO 4 mph 7 mph 86% 0 in
05:14 70 °F 65.7 °F 30 in SSO 4 mph 7 mph 86% 0 in
05:19 70 °F 65.7 °F 30 in SO 4 mph 7 mph 86% 0 in
05:24 70 °F 65.7 °F 30 in SO 4 mph 6 mph 86% 0 in
05:29 70 °F 65.7 °F 30 in SO 3.9 mph 5 mph 86% 0 in
05:34 70 °F 65.7 °F 30 in SO 3.6 mph 5.2 mph 86% 0 in
05:39 70 °F 65.5 °F 30 in SO 3.6 mph 6.2 mph 86% 0 in
05:44 69.8 °F 65.5 °F 30 in SO 3.6 mph 6 mph 86% 0 in
05:49 69.8 °F 65.5 °F 30 in SSO 3.3 mph 5.2 mph 86% 0 in
05:54 69.8 °F 65.5 °F 30 in SO 2.4 mph 5 mph 86% 0 in
05:59 69.6 °F 65.3 °F 30 in SO 2.6 mph 5.9 mph 86% 0 in
06:04 69.6 °F 65.1 °F 30 in SO 3.1 mph 6 mph 86% 0 in
06:09 69.6 °F 65.1 °F 30 in SO 3.1 mph 6.2 mph 86% 0 in
06:14 69.4 °F 64.8 °F 30 in SO 3.1 mph 6 mph 85.1% 0 in
06:19 69.4 °F 64.8 °F 30 in OSO 3.2 mph 6.2 mph 85% 0 in
06:24 69.4 °F 64.6 °F 30 in OSO 3.6 mph 6 mph 84.9% 0 in
06:29 69.3 °F 64.2 °F 30 in SO 3.6 mph 7.4 mph 84% 0 in
06:34 69.1 °F 64 °F 30 in SO 3.6 mph 7 mph 84% 0 in
06:39 69.1 °F 64 °F 30 in OSO 3.8 mph 7 mph 84% 0 in
06:44 69.1 °F 64.2 °F 30 in SO 4.3 mph 6 mph 84.6% 0 in
06:49 68.9 °F 64.2 °F 30 in OSO 4 mph 5.9 mph 85% 0 in
06:54 68.7 °F 64 °F 30 in OSO 3.1 mph 6 mph 85% 0 in
06:59 68.7 °F 64 °F 30 in OSO 3.2 mph 6 mph 85% 0 in
07:04 68.7 °F 64 °F 30 in OSO 3.6 mph 5 mph 85% 0 in
07:09 68.5 °F 63.9 °F 30 in OSO 3.4 mph 5 mph 85% 0 in
07:14 68.5 °F 63.9 °F 30 in Oeste 2.9 mph 5 mph 85% 0 in
07:19 68.5 °F 63.9 °F 30 in Oeste 2.5 mph 3.5 mph 85% 0 in
07:24 68.5 °F 63.9 °F 30 in Oeste 1.4 mph 3.5 mph 85% 0 in
07:29 68.5 °F 63.7 °F 30 in OSO 1.6 mph 4.6 mph 85% 0 in
07:34 68.5 °F 63.7 °F 30 in SO 2 mph 5 mph 84.8% 0 in
07:39 68.4 °F 63.3 °F 30 in SO 2.1 mph 5 mph 84% 0 in
07:44 68.4 °F 63.3 °F 30 in SO 2.4 mph 5 mph 84% 0 in
07:49 68.4 °F 63.3 °F 30 in SO 2.4 mph 5 mph 84% 0 in
07:54 68.4 °F 63.3 °F 30 in SSO 2.4 mph 5 mph 84% 0 in
07:59 68.4 °F 63.3 °F 30 in SO 2.3 mph 5 mph 84% 0 in
08:04 68.4 °F 63.3 °F 30 in OSO 2 mph 4.6 mph 84% 0 in
08:09 68.4 °F 63.3 °F 30 in Oeste 1.9 mph 5 mph 83.8% 0 in
08:14 68.4 °F 63 °F 30 in Oeste 1.4 mph 3.6 mph 83% 0 in
08:19 68.4 °F 63 °F 30 in Oeste 1.4 mph 4 mph 83% 0 in
08:24 68.4 °F 63 °F 30 in OSO 1.4 mph 3.6 mph 83% 0 in
08:29 68.4 °F 63 °F 30 in OSO 1.5 mph 4.6 mph 83% 0 in
08:34 68.4 °F 63 °F 30 in OSO 1.8 mph 5 mph 83% 0 in
08:39 68.5 °F 63 °F 30 in OSO 2 mph 5.8 mph 82.6% 0 in
08:44 68.5 °F 63.1 °F 30 in SO 2.4 mph 6 mph 82.5% 0 in
08:49 68.7 °F 63.1 °F 30 in Sur 2.4 mph 5 mph 82.3% 0 in
08:54 68.9 °F 63.1 °F 30 in SSO 2.4 mph 5.9 mph 82% 0 in
08:59 68.9 °F 62.8 °F 30 in SSO 2.6 mph 6 mph 81.1% 0 in
09:04 68.9 °F 63 °F 30 in SSO 3.1 mph 6 mph 81% 0 in
09:09 69.1 °F 63.1 °F 30 in SO 3.3 mph 6 mph 81% 0 in
09:14 69.4 °F 62.8 °F 30 in SO 4 mph 6.2 mph 79.8% 0 in
09:19 69.6 °F 62.6 °F 30 in SO 4 mph 6.9 mph 77.9% 0 in
09:24 70 °F 62.2 °F 30 in SSO 4 mph 7.4 mph 76.4% 0 in
09:29 70.2 °F 62.4 °F 30 in SSO 4.2 mph 7.4 mph 76.7% 0 in
09:34 70.3 °F 62.8 °F 30 in SSO 4.7 mph 7 mph 77% 0 in
09:39 70.5 °F 63 °F 30 in SSO 4.6 mph 8.1 mph 76.9% 0 in
09:44 70.5 °F 62.6 °F 30 in SSO 4.3 mph 8.5 mph 76.1% 0 in
09:49 70.7 °F 62.8 °F 30 in SSO 4.3 mph 9 mph 76% 0 in
09:54 70.9 °F 62.8 °F 30 in SSO 4.3 mph 6.2 mph 75.7% 0 in
09:59 71.1 °F 62.8 °F 30 in SO 4.1 mph 6 mph 74.9% 0 in
10:04 71.4 °F 62.4 °F 30 in SO 3.6 mph 6.9 mph 73.2% 0 in
10:09 71.8 °F 62.4 °F 30 in OSO 3.5 mph 7 mph 72.2% 0 in
10:14 72.1 °F 62.4 °F 30 in OSO 3.1 mph 6.2 mph 71.6% 0 in
10:19 72.3 °F 62.2 °F 30 in OSO 3.2 mph 6.9 mph 70.6% 0 in
10:24 72.5 °F 62.2 °F 30 in OSO 3.6 mph 7 mph 70.2% 0 in
10:29 72.7 °F 61.9 °F 30 in OSO 3.8 mph 7.4 mph 68.9% 0 in
10:34 72.9 °F 61.5 °F 30 in OSO 4.3 mph 7 mph 67.6% 0 in
10:39 73.4 °F 61.2 °F 30 in SO 4.4 mph 8.1 mph 65.8% 0 in
10:44 73.8 °F 61.2 °F 30 in Oeste 4.7 mph 8.1 mph 65% 0 in
10:49 73.8 °F 61.3 °F 30 in ONO 4.5 mph 6.2 mph 65% 0 in
10:54 74.1 °F 61.5 °F 30 in SO 4 mph 6 mph 64.8% 0 in
10:59 74.7 °F 61.5 °F 30 in Sur 3.5 mph 5 mph 63.8% 0 in
11:04 75.2 °F 61.2 °F 30 in OSO 2.4 mph 4 mph 62.1% 0 in
11:09 75.7 °F 61.7 °F 30 in Sur 2.2 mph 4.6 mph 61.7% 0 in
11:14 76.5 °F 61.2 °F 30 in Sur 1.8 mph 5.9 mph 59.5% 0 in
11:19 76.6 °F 60.4 °F 30 in SSE 2.1 mph 6 mph 57.3% 0 in
11:24 77.4 °F 59.4 °F 30 in SE 2.9 mph 6.9 mph 54.2% 0 in
11:29 77.5 °F 58.8 °F 30 in Sur 3.2 mph 7 mph 52.4% 0 in
11:34 77.9 °F 59 °F 30 in Sur 4 mph 6 mph 52.1% 0 in
11:39 78.4 °F 58.5 °F 30 in Oeste 3.7 mph 5.8 mph 50.4% 0 in
11:44 78.6 °F 58.3 °F 30 in OSO 2.9 mph 7.4 mph 49.7% 0 in
11:49 78.6 °F 57.7 °F 30 in OSO 3 mph 7 mph 48.8% 0 in
11:54 78.6 °F 57.4 °F 30 in Oeste 3.6 mph 7 mph 48.3% 0 in
11:59 79 °F 57.9 °F 30 in OSO 3.6 mph 6 mph 48.3% 0 in
12:04 79.3 °F 57.7 °F 30 in SO 3.6 mph 8.1 mph 47.7% 0 in
12:09 79.5 °F 57.6 °F 30 in SSO 3.6 mph 8.1 mph 47% 0 in
12:14 80.1 °F 58.1 °F 30 in SSO 3.6 mph 6 mph 47.2% 0 in
12:19 80.4 °F 57.9 °F 30 in OSO 3.5 mph 6.9 mph 46.2% 0 in
12:24 80.8 °F 57.9 °F 30 in SSO 3.1 mph 7 mph 45.8% 0 in
12:29 81 °F 58.3 °F 30 in SO 3.1 mph 7 mph 46.2% 0 in
12:34 81.1 °F 58.5 °F 30 in Oeste 3.1 mph 6 mph 46% 0 in
12:39 81.9 °F 59 °F 30 in Oeste 2.8 mph 5 mph 45.9% 0 in
12:44 82.4 °F 59 °F 30 in NNO 2 mph 5 mph 45% 0 in
12:49 83.1 °F 59.2 °F 30 in NE 1.9 mph 4 mph 44.4% 0 in
12:54 83.7 °F 58.8 °F 30 in NO 1.8 mph 5 mph 42.9% 0 in
12:59 84 °F 58.3 °F 30 in NNO 2 mph 5.2 mph 41.6% 0 in
13:04 83.8 °F 57.9 °F 30 in ONO 2.4 mph 5 mph 41.5% 0 in
13:09 83.8 °F 58.3 °F 30 in NNO 2.4 mph 5.4 mph 41.9% 0 in
13:14 83.8 °F 57.9 °F 30 in North 2.4 mph 6 mph 41.5% 0 in
13:19 83.8 °F 57.7 °F 30 in ONO 2.5 mph 6 mph 41.1% 0 in
13:24 83.8 °F 57.7 °F 30 in ONO 3.1 mph 5.2 mph 41% 0 in
13:29 83.8 °F 57.7 °F 30 in ONO 2.9 mph 5.2 mph 41% 0 in
13:34 84.4 °F 57.6 °F 30 in Oeste 2.4 mph 5.9 mph 40.4% 0 in
13:39 84.7 °F 57.4 °F 30 in ONO 2.5 mph 6.2 mph 39.6% 0 in
13:44 84.7 °F 56.8 °F 30 in NNO 2.9 mph 6 mph 38.7% 0 in
13:49 84.7 °F 56.7 °F 30 in NNO 2.9 mph 5.8 mph 38.4% 0 in
13:54 85.3 °F 57.6 °F 30 in NNE 2.9 mph 7.4 mph 39% 0 in
13:59 85.5 °F 57.9 °F 30 in NNE 2.9 mph 7 mph 39.4% 0 in
14:04 85.8 °F 58.3 °F 30 in NNO 3.1 mph 6.2 mph 39.3% 0 in
14:09 86 °F 58.6 °F 29.9 in NE 3.2 mph 6 mph 39.6% 0 in
14:14 86.2 °F 59.5 °F 29.9 in NE 3.6 mph 9.2 mph 40.6% 0 in
14:19 86.4 °F 59.7 °F 29.9 in NE 3.8 mph 9 mph 40.6% 0 in
14:24 86.2 °F 59.2 °F 29.9 in NNE 4.3 mph 8.5 mph 40.2% 0 in
14:29 85.8 °F 59.4 °F 29.9 in NE 4.6 mph 9 mph 40.9% 0 in
14:34 86 °F 59.5 °F 29.9 in NE 5.4 mph 9.2 mph 40.8% 0 in
14:39 86.2 °F 59.5 °F 29.9 in NE 5.3 mph 9.7 mph 40.7% 0 in
14:44 86.4 °F 59.9 °F 29.9 in NE 5.2 mph 10 mph 41.1% 0 in
14:49 86.5 °F 60.4 °F 29.9 in NNE 5.1 mph 11.4 mph 41.7% 0 in
14:54 86.5 °F 61 °F 29.9 in NNE 4.7 mph 12.7 mph 42.3% 0 in
14:59 86.5 °F 61.9 °F 29.9 in NE 5.2 mph 13 mph 43.8% 0 in
15:04 86.5 °F 62.1 °F 29.9 in NE 6.2 mph 10.4 mph 44% 0 in
15:09 86.5 °F 62.2 °F 29.9 in NNE 6.4 mph 11.8 mph 44.3% 0 in
15:14 86.7 °F 63.1 °F 29.9 in NE 6.9 mph 13.8 mph 45.4% 0 in
15:19 86.5 °F 64.8 °F 29.9 in NNE 7 mph 14 mph 48.4% 0 in
15:24 86.5 °F 66.2 °F 29.9 in NE 7.4 mph 14 mph 50.9% 0 in
15:29 86.4 °F 66.7 °F 29.9 in NE 7.6 mph 16.1 mph 52.3% 0 in
15:34 86.2 °F 66.9 °F 29.9 in NE 8.5 mph 16 mph 52.8% 0 in
15:39 86.2 °F 67.6 °F 29.9 in NE 8.5 mph 15 mph 54.3% 0 in
15:44 85.6 °F 68.4 °F 29.9 in NE 8.7 mph 16.1 mph 56.3% 0 in
15:49 85.5 °F 68.5 °F 29.9 in NE 9.4 mph 17.5 mph 57.1% 0 in
15:54 85.5 °F 68.9 °F 29.9 in NE 11.2 mph 17 mph 58% 0 in
15:59 85.3 °F 68.9 °F 29.9 in NE 10.7 mph 16.1 mph 58.2% 0 in
16:04 85.3 °F 69.3 °F 29.9 in NE 9.7 mph 16.1 mph 59% 0 in
16:09 85.1 °F 69.1 °F 29.9 in NE 9.4 mph 16 mph 59% 0 in
16:14 84.9 °F 69.4 °F 29.9 in NE 8.5 mph 18.5 mph 59.7% 0 in
16:19 84.6 °F 69.6 °F 29.9 in NE 9.2 mph 19 mph 61% 0 in
16:24 84.6 °F 69.6 °F 29.9 in NNE 11.2 mph 16.1 mph 61% 0 in
16:29 84.6 °F 69.8 °F 29.9 in NE 10.9 mph 16 mph 61.4% 0 in
16:34 84.4 °F 70 °F 29.9 in NE 10.2 mph 17.5 mph 62% 0 in
16:39 84.2 °F 69.8 °F 29.9 in NE 10.1 mph 17 mph 62% 0 in
16:44 84 °F 69.6 °F 29.9 in NE 10 mph 16 mph 62% 0 in
16:49 84 °F 69.6 °F 29.9 in NE 9.9 mph 16.1 mph 62% 0 in
16:54 83.8 °F 69.4 °F 29.9 in NE 9.7 mph 18.4 mph 62% 0 in
16:59 83.7 °F 69.6 °F 29.9 in NE 10.2 mph 18 mph 62.8% 0 in
17:04 83.7 °F 69.4 °F 29.9 in NE 11.4 mph 16.3 mph 62.3% 0 in
17:09 83.5 °F 69.4 °F 29.9 in NNE 11.2 mph 16.3 mph 62.8% 0 in
17:14 83.5 °F 69.4 °F 29.9 in NE 10.7 mph 16.1 mph 62.6% 0 in
17:19 83.5 °F 69.3 °F 29.9 in NE 10.3 mph 16.1 mph 62.2% 0 in
17:24 83.5 °F 69.4 °F 29.9 in NE 9.2 mph 16.1 mph 62.7% 0 in
17:29 83.1 °F 69.3 °F 29.9 in NE 9.6 mph 17.5 mph 62.9% 0 in
17:34 83.1 °F 68.5 °F 29.9 in NE 10.7 mph 17 mph 61.8% 0 in
17:39 83.1 °F 68.2 °F 29.9 in NE 10.4 mph 16.1 mph 61% 0 in
17:44 82.9 °F 67.6 °F 29.9 in NE 9.7 mph 17.5 mph 60.1% 0 in
17:49 82.8 °F 67.1 °F 29.9 in NE 9.8 mph 20.1 mph 59.1% 0 in
17:54 82.6 °F 66.4 °F 29.9 in NE 10 mph 21 mph 58.3% 0 in
17:59 82.2 °F 66.6 °F 29.9 in NE 10.3 mph 18 mph 59.3% 0 in
18:04 82 °F 66.9 °F 29.9 in NNE 11.2 mph 17.3 mph 60% 0 in
18:09 82 °F 66.7 °F 29.9 in NE 11 mph 17 mph 60% 0 in
18:14 81.9 °F 67.1 °F 29.9 in NE 10.2 mph 15 mph 61% 0 in
18:19 82 °F 67.3 °F 29.9 in NE 10.1 mph 16.1 mph 60.9% 0 in
18:24 81.9 °F 66.6 °F 29.9 in NE 9.7 mph 17.3 mph 60.1% 0 in
18:29 81.7 °F 66.4 °F 29.9 in NE 9.7 mph 17 mph 60% 0 in
18:34 81.3 °F 65.8 °F 29.9 in NE 9.7 mph 17.3 mph 59.7% 0 in
18:39 81.1 °F 66 °F 29.9 in NE 9.8 mph 17 mph 60.2% 0 in
18:44 81 °F 66.4 °F 29.9 in NE 10.2 mph 16.1 mph 61.5% 0 in
18:49 80.6 °F 66.4 °F 29.9 in NE 9.9 mph 16.1 mph 62% 0 in
18:54 80.4 °F 66.7 °F 29.9 in NE 9.2 mph 16.1 mph 63.2% 0 in
18:59 80.2 °F 67.1 °F 29.9 in NE 9.1 mph 16 mph 64.4% 0 in
19:04 80.1 °F 67.5 °F 29.9 in NE 8.7 mph 13 mph 65.6% 0 in
19:09 79.7 °F 67.5 °F 29.9 in NE 8.6 mph 13 mph 66.3% 0 in
19:14 79.3 °F 67.6 °F 29.9 in NE 8.5 mph 14.7 mph 67.4% 0 in
19:19 79.2 °F 68 °F 29.9 in NE 8.5 mph 15 mph 68.7% 0 in
19:24 79 °F 68 °F 29.9 in NE 8.5 mph 12 mph 69.3% 0 in
19:29 78.8 °F 68.4 °F 29.9 in NE 8.1 mph 11.5 mph 70.4% 0 in
19:34 78.4 °F 68.5 °F 29.9 in NE 6.9 mph 12 mph 71.6% 0 in
19:39 78.4 °F 68.7 °F 29.9 in NE 6.9 mph 13.8 mph 72.4% 0 in
19:44 78.3 °F 68.9 °F 29.9 in NE 6.9 mph 15 mph 73.3% 0 in
19:49 77.7 °F 68.9 °F 29.9 in NE 7.2 mph 15 mph 74% 0 in
19:54 77.5 °F 68.9 °F 29.9 in NE 8.1 mph 13.8 mph 74.6% 0 in
19:59 77.4 °F 69.1 °F 29.9 in NE 7.7 mph 14 mph 75.6% 0 in
20:04 77.2 °F 69.1 °F 29.9 in NE 6.9 mph 12 mph 76.5% 0 in
20:09 76.8 °F 69.3 °F 29.9 in NNE 6.9 mph 12 mph 77.6% 0 in
20:14 76.6 °F 69.6 °F 29.9 in NE 6.9 mph 13.5 mph 79.1% 0 in
20:19 76.3 °F 69.8 °F 29.9 in NE 7 mph 13 mph 80.1% 0 in
20:24 75.9 °F 69.8 °F 29.9 in NE 7.4 mph 13.5 mph 81% 0 in
20:29 75.7 °F 70 °F 29.9 in NE 7.6 mph 14 mph 82% 0 in
20:34 75.6 °F 70 °F 29.9 in NE 8.1 mph 14 mph 82.8% 0 in
20:39 75.6 °F 70 °F 29.9 in NE 7.6 mph 11.8 mph 83.1% 0 in
20:44 75.2 °F 70.2 °F 29.9 in NE 6.2 mph 12.3 mph 84% 0 in
20:49 75 °F 70 °F 29.9 in NE 6.4 mph 12 mph 84.4% 0 in
20:54 74.8 °F 70 °F 29.9 in NE 6.9 mph 11.8 mph 85% 0 in
20:59 74.8 °F 70 °F 29.9 in NE 6.7 mph 12 mph 85% 0 in
21:04 74.7 °F 70.2 °F 29.9 in NE 6.2 mph 11.8 mph 86% 0 in
21:09 74.5 °F 70 °F 29.9 in NE 6.5 mph 12 mph 86% 0 in
21:14 74.3 °F 70.2 °F 29.9 in NE 7.6 mph 12 mph 86.9% 0 in
21:19 74.1 °F 70 °F 29.9 in NE 7.6 mph 12 mph 87% 0 in
21:24 74.1 °F 70 °F 29.9 in NE 7.4 mph 11.5 mph 87% 0 in
21:29 73.9 °F 70 °F 29.9 in NE 7.1 mph 12 mph 87.2% 0 in
21:34 73.8 °F 70 °F 29.9 in NE 6.4 mph 11.5 mph 88% 0 in
21:39 73.8 °F 70 °F 29.9 in NE 6.4 mph 12 mph 88% 0 in
21:44 73.6 °F 69.8 °F 29.9 in NE 6.4 mph 12 mph 88% 0 in
21:49 73.4 °F 69.6 °F 29.9 in NE 6.5 mph 13 mph 88% 0 in
21:54 73.2 °F 69.8 °F 29.9 in NE 6.9 mph 13 mph 89% 0 in
21:59 73.2 °F 69.8 °F 29.9 in NE 6.6 mph 9.7 mph 89% 0 in
22:04 73 °F 69.6 °F 29.9 in NE 5.9 mph 10 mph 89% 0 in
22:09 73 °F 69.4 °F 29.9 in NE 6 mph 11.5 mph 89% 0 in
22:14 72.9 °F 69.4 °F 29.9 in NE 6.2 mph 12 mph 89% 0 in
22:19 72.9 °F 69.3 °F 29.9 in NE 6 mph 9.2 mph 89% 0 in
22:24 72.7 °F 69.3 °F 29.9 in NE 5.4 mph 9.2 mph 89% 0 in
22:29 72.5 °F 69.1 °F 29.9 in NE 5.2 mph 9.2 mph 89% 0 in
22:34 72.5 °F 69.1 °F 29.9 in NE 4.7 mph 9 mph 89% 0 in
22:39 72.5 °F 69.1 °F 29.9 in NE 4.5 mph 7.4 mph 89% 0 in
22:44 72.5 °F 69.1 °F 29.9 in NE 4 mph 7 mph 89% 0 in
22:49 72.5 °F 69.1 °F 30 in NE 3.8 mph 7 mph 89% 0 in
22:54 72.5 °F 69.1 °F 30 in NE 3.1 mph 8.1 mph 89% 0 in
22:59 72.3 °F 68.9 °F 30 in NE 3.4 mph 8 mph 89% 0 in
23:04 72.3 °F 68.7 °F 30 in ENE 4.3 mph 6 mph 88.4% 0 in
23:09 72.3 °F 68.5 °F 29.9 in NE 4 mph 6 mph 88% 0 in
23:14 72.3 °F 68.5 °F 29.9 in NE 3.1 mph 6 mph 88% 0 in
23:19 72.3 °F 68.5 °F 29.9 in NE 3.1 mph 6 mph 88% 0 in
23:24 72.3 °F 68.5 °F 29.9 in NE 3.1 mph 5 mph 88% 0 in
23:29 72.3 °F 68.5 °F 29.9 in NNE 3 mph 5.2 mph 88% 0 in
23:34 72.1 °F 68.5 °F 29.9 in NNE 2.9 mph 5 mph 88% 0 in
23:39 72.1 °F 68.4 °F 29.9 in NNE 2.8 mph 5 mph 88% 0 in
23:44 72 °F 68.2 °F 29.9 in NNE 2.4 mph 5 mph 88% 0 in
23:49 72 °F 68.2 °F 29.9 in NNE 2.4 mph 5.8 mph 88.1% 0 in
23:54 71.8 °F 68.4 °F 29.9 in North 2.4 mph 6 mph 89% 0 in
23:59 71.4 °F 68 °F 29.9 in NNO 2.5 mph 6 mph 89% 0 in
Murcia-Puente Tocinos, España
Compliments of Weather Underground - 3 mb

La estación de MeteoMurcia.com, publica sus datos en los siguientes proyectos:

Weather Underground PWS IMURCIAP2 Meteoclimatic www.awekas.at

W3Counter
Web Analytics